createdAt,value
2019-03-08T08:47:22.493Z,36.346436
2019-03-08T08:47:34.615Z,36.566162
2019-03-08T08:47:47.259Z,36.761475
2019-03-08T08:47:59.337Z,37.06665
2019-03-08T08:48:40.987Z,37.628174
2019-03-08T08:48:52.946Z,36.932373
2019-03-08T08:49:05.055Z,36.529541
2019-03-08T08:49:17.073Z,36.029053
2019-03-08T08:49:29.049Z,35.943604
2019-03-08T08:49:41.063Z,36.248779
2019-03-08T08:49:55.066Z,36.444092
2019-03-08T08:50:06.321Z,36.547852
2019-03-08T08:50:18.332Z,36.663818
2019-03-08T08:50:30.386Z,36.865234
2019-03-08T08:50:42.381Z,36.865234
2019-03-08T08:50:54.355Z,37.06665
2019-03-08T08:51:06.373Z,37.567139
2019-03-08T08:51:18.514Z,37.481689
2019-03-08T08:51:30.528Z,37.280273
2019-03-08T08:51:42.536Z,37.084961
2019-03-08T08:51:54.491Z,37.182617
2019-03-08T08:52:06.440Z,37.182617
2019-03-08T08:52:18.654Z,37.481689
2019-03-08T08:52:30.644Z,37.585449
2019-03-08T08:52:42.689Z,37.786865
2019-03-08T08:52:54.680Z,37.585449
2019-03-08T08:53:06.718Z,37.280273
2019-03-08T08:53:18.680Z,37.585449
2019-03-08T08:53:31.088Z,37.481689
2019-03-08T08:53:43.561Z,37.384033
2019-03-08T08:53:55.596Z,37.384033
2019-03-08T08:54:07.750Z,37.60376
2019-03-08T08:54:19.811Z,37.60376
2019-03-08T08:54:31.963Z,37.60376
2019-03-08T08:54:44.186Z,37.701416
2019-03-08T08:54:56.669Z,37.701416
2019-03-08T08:55:09.184Z,37.60376
2019-03-08T08:55:21.202Z,37.701416
2019-03-08T08:55:33.222Z,37.799072
2019-03-08T08:55:46.246Z,37.60376
2019-03-08T08:55:58.216Z,37.701416
2019-03-08T08:56:10.296Z,37.701416
2019-03-08T08:56:22.324Z,37.60376
2019-03-08T08:56:34.361Z,37.701416
2019-03-08T08:56:47.310Z,37.5
2019-03-08T08:56:59.245Z,37.298584
2019-03-08T08:57:11.464Z,37.402344
2019-03-08T08:57:23.420Z,37.5
2019-03-08T08:57:35.427Z,37.5
2019-03-08T08:57:47.491Z,37.799072
2019-03-08T08:57:59.467Z,37.902832
2019-03-08T08:58:11.558Z,38.000488
2019-03-08T08:58:23.615Z,37.701416
2019-03-08T08:58:35.661Z,38.104248
2019-03-08T08:58:47.683Z,38.305664
2019-03-08T08:59:00.064Z,38.104248
2019-03-08T08:59:12.041Z,37.902832
2019-03-08T08:59:24.095Z,37.5
2019-03-08T08:59:36.280Z,37.5
2019-03-08T08:59:48.292Z,38.000488
2019-03-08T09:00:00.360Z,37.982178
2019-03-08T09:00:12.743Z,37.683105
2019-03-08T09:00:24.664Z,38.085938
2019-03-08T09:00:36.713Z,38.183594
2019-03-08T09:00:48.686Z,38.085938
2019-03-08T09:01:00.639Z,37.683105
2019-03-08T09:01:12.647Z,37.683105
2019-03-08T09:01:24.897Z,37.481689
2019-03-08T09:01:37.037Z,37.786865
2019-03-08T09:01:49.075Z,37.585449
2019-03-08T09:02:01.081Z,37.585449
2019-03-08T09:02:13.071Z,37.384033
2019-03-08T09:02:25.287Z,37.585449
2019-03-08T09:02:36.348Z,37.481689
2019-03-08T09:02:48.339Z,37.701416
2019-03-08T09:03:00.583Z,37.799072
2019-03-08T09:03:12.410Z,37.799072
2019-03-08T09:03:24.422Z,37.60376
2019-03-08T09:03:36.694Z,37.701416
2019-03-08T09:03:48.702Z,37.60376
2019-03-08T09:04:00.684Z,37.60376
2019-03-08T09:04:12.727Z,37.60376
2019-03-08T09:04:24.923Z,37.60376
2019-03-08T09:04:37.025Z,37.701416
2019-03-08T09:04:49.022Z,37.701416
2019-03-08T09:05:01.260Z,37.5
2019-03-08T09:05:13.009Z,37.60376
2019-03-08T09:05:25.027Z,37.701416
2019-03-08T09:05:37.138Z,37.60376
2019-03-08T09:06:00.080Z,37.902832
2019-03-08T09:06:11.125Z,38.104248
2019-03-08T09:06:23.139Z,37.799072
2019-03-08T09:06:31.357Z,37.799072
2019-03-08T09:06:43.381Z,37.701416
2019-03-08T09:06:55.357Z,37.60376
2019-03-08T09:07:07.539Z,37.799072
2019-03-08T09:07:19.588Z,37.701416
2019-03-08T09:07:31.711Z,37.701416
2019-03-08T09:07:43.781Z,37.701416
2019-03-08T09:07:56.007Z,37.701416
2019-03-08T09:08:08.413Z,38.201904
2019-03-08T09:08:20.509Z,38.000488
2019-03-08T09:08:32.562Z,37.902832
2019-03-08T09:08:44.560Z,37.60376
2019-03-08T09:08:56.663Z,37.799072
2019-03-08T09:09:08.955Z,38.305664
2019-03-08T09:09:20.991Z,37.884521
2019-03-08T09:09:33.025Z,37.481689
2019-03-08T09:09:45.068Z,38.183594
2019-03-08T09:09:57.192Z,37.982178
2019-03-08T09:10:09.278Z,37.585449
